Time;durP1;ratioP1;P1;durP2;ratioP2;P2;SDS_P1;SDS_P2;PMS_P1;PMS_P2;Temp;Humidity;BMP_temperature;BMP_pressure;BME280_temperature;BME280_humidity;BME280_pressure;Samples;Min_cycle;Max_cycle;Signal;HPM_P1;HPM_P2
2022/06/08 00:00:54;;;;;;;;;;;;;;;;;;6206530;28;20512;-60
2022/06/08 00:03:57;;;;;;;47.03;21.88;;;;;;;;;;6206325;28;19973;-60
2022/06/08 00:06:58;;;;;;;45.55;21.67;;;;;;;;;;6212660;28;20075;-61
2022/06/08 00:09:59;;;;;;;51.45;22.23;;;;;;;;;;6208561;28;20045;-60
2022/06/08 00:13:00;;;;;;;44.03;21.60;;;;;;;;;;6205855;28;20532;-60
2022/06/08 00:16:01;;;;;;;47.53;21.85;;;;;;;;;;6205445;28;20053;-60
2022/06/08 00:19:02;;;;;;;42.85;22.35;;;;;;;;;;6208434;28;20038;-60
2022/06/08 00:22:04;;;;;;;43.63;21.77;;;;;;;;;;6203707;28;20077;-60
2022/06/08 00:25:06;;;;;;;;;;;;;;;;;;6211354;28;20458;-59
2022/06/08 00:28:06;;;;;;;44.03;21.27;;;;;;;;;;6206811;28;19972;-60
2022/06/08 00:31:07;;;;;;;38.17;20.20;;;;;;;;;;6206329;28;20046;-60
2022/06/08 00:34:08;;;;;;;42.90;22.27;;;;;;;;;;6199880;28;20056;-60
2022/06/08 00:37:09;;;;;;;44.35;22.80;;;;;;;;;;6208331;28;20096;-60
2022/06/08 00:40:11;;;;;;;45.90;22.77;;;;;;;;;;6206006;28;20060;-60
2022/06/08 00:43:13;;;;;;;53.10;24.35;;;;;;;;;;6204521;28;20074;-60
2022/06/08 00:46:13;;;;;;;47.77;22.80;;;;;;;;;;6206901;28;20500;-59
2022/06/08 00:49:29;;;;;;;47.30;22.37;;;;;;;;;;6204400;28;20054;-58
2022/06/08 00:52:33;;;;;;;53.10;25.67;;;;;;;;;;6204256;28;20042;-60
2022/06/08 00:55:38;;;;;;;48.83;23.92;;;;;;;;;;6200350;28;20051;-60
2022/06/08 00:58:39;;;;;;;49.33;23.15;;;;;;;;;;6203905;28;20055;-59
2022/06/08 01:01:40;;;;;;;44.17;22.63;;;;;;;;;;6204701;28;20061;-59
2022/06/08 01:04:40;;;;;;;46.60;22.52;;;;;;;;;;6206541;28;20078;-59
2022/06/08 01:07:42;;;;;;;45.40;22.10;;;;;;;;;;6207071;28;20705;-59
2022/06/08 01:10:49;;;;;;;41.80;22.00;;;;;;;;;;6207805;28;20143;-59
2022/06/08 01:13:50;;;;;;;43.92;21.27;;;;;;;;;;6202766;28;20061;-58
2022/06/08 01:17:09;;;;;;;46.08;22.35;;;;;;;;;;6203751;28;20038;-59
2022/06/08 01:20:11;;;;;;;45.95;21.70;;;;;;;;;;6199371;28;20415;-58
2022/06/08 01:23:12;;;;;;;43.83;21.35;;;;;;;;;;6198379;28;20497;-59
2022/06/08 01:26:38;;;;;;;43.17;20.75;;;;;;;;;;6205247;28;20116;-58
2022/06/08 01:30:04;;;;;;;44.72;20.77;;;;;;;;;;6197794;28;20058;-59
2022/06/08 01:33:26;;;;;;;41.00;20.08;;;;;;;;;;6205202;28;20050;-60
2022/06/08 01:36:29;;;;;;;44.83;20.83;;;;;;;;;;6206880;28;20084;-59
2022/06/08 01:39:50;;;;;;;39.03;20.60;;;;;;;;;;6212204;28;20054;-59
2022/06/08 01:42:50;;;;;;;45.13;21.05;;;;;;;;;;6199850;28;20056;-58
2022/06/08 01:46:10;;;;;;;43.33;20.38;;;;;;;;;;6208662;28;20058;-59
2022/06/08 01:49:13;;;;;;;44.45;22.80;;;;;;;;;;6204121;28;20081;-59
2022/06/08 01:52:21;;;;;;;48.35;22.33;;;;;;;;;;6197555;28;20045;-58
2022/06/08 01:55:31;;;;;;;47.05;21.48;;;;;;;;;;6206488;28;20478;-59
2022/06/08 01:58:34;;;;;;;47.42;22.15;;;;;;;;;;6204429;28;20077;-59
2022/06/08 02:01:46;;;;;;;48.50;22.15;;;;;;;;;;6206409;28;20062;-60
2022/06/08 02:05:10;;;;;;;47.78;24.33;;;;;;;;;;6203207;28;20065;-59
2022/06/08 02:08:22;;;;;;;50.78;24.42;;;;;;;;;;6203993;28;20053;-59
2022/06/08 02:11:46;;;;;;;46.78;22.80;;;;;;;;;;6200389;28;20069;-60
2022/06/08 02:14:56;;;;;;;48.42;23.33;;;;;;;;;;6207117;28;20049;-60
2022/06/08 02:18:04;;;;;;;51.67;23.67;;;;;;;;;;6207558;28;20124;-59
2022/06/08 02:21:07;;;;;;;49.55;23.85;;;;;;;;;;6208941;28;20030;-59
2022/06/08 02:24:34;;;;;;;49.10;23.17;;;;;;;;;;6208100;28;20085;-59
2022/06/08 02:27:44;;;;;;;44.42;21.50;;;;;;;;;;6198047;28;20409;-60
2022/06/08 02:30:52;;;;;;;42.30;21.80;;;;;;;;;;6204027;28;20061;-60
2022/06/08 02:37:23;;;;;;;49.17;21.58;;;;;;;;;;6204156;28;20074;-59
2022/06/08 02:40:28;;;;;;;45.95;21.17;;;;;;;;;;6206331;28;20045;-58
2022/06/08 02:43:46;;;;;;;46.45;21.95;;;;;;;;;;6203833;28;20042;-59
2022/06/08 02:47:16;;;;;;;43.97;22.15;;;;;;;;;;6208423;28;20042;-60
2022/06/08 02:50:23;;;;;;;45.17;22.27;;;;;;;;;;6196212;28;20045;-59
2022/06/08 02:53:26;;;;;;;47.17;22.75;;;;;;;;;;6198364;28;20512;-60
2022/06/08 02:56:42;;;;;;;50.30;23.48;;;;;;;;;;6196502;28;20085;-60
2022/06/08 02:59:46;;;;;;;46.97;22.70;;;;;;;;;;6205000;28;20042;-59
2022/06/08 03:02:54;;;;;;;49.60;23.67;;;;;;;;;;6202221;28;20559;-59
2022/06/08 03:06:05;;;;;;;47.95;22.15;;;;;;;;;;6208527;28;20050;-59
2022/06/08 03:09:10;;;;;;;46.75;23.48;;;;;;;;;;6204490;28;20108;-59
2022/06/08 03:12:20;;;;;;;46.45;22.30;;;;;;;;;;6205651;28;20065;-59
2022/06/08 03:15:24;;;;;;;53.05;23.35;;;;;;;;;;6208182;28;20046;-60
2022/06/08 03:18:25;;;;;;;50.60;23.98;;;;;;;;;;6207756;28;20132;-60
2022/06/08 03:21:26;;;;;;;49.70;23.52;;;;;;;;;;6203754;28;20046;-59
2022/06/08 03:24:27;;;;;;;53.40;23.17;;;;;;;;;;6203962;28;20125;-60
2022/06/08 03:27:28;;;;;;;;;;;;;;;;;;6195032;28;20489;-60
2022/06/08 03:30:29;;;;;;;53.80;24.02;;;;;;;;;;6201399;28;19934;-58
2022/06/08 03:33:30;;;;;;;49.13;23.40;;;;;;;;;;6206431;28;20286;-59
2022/06/08 03:36:30;;;;;;;65.53;29.42;;;;;;;;;;6199614;28;20081;-58
2022/06/08 03:39:32;;;;;;;65.35;31.40;;;;;;;;;;6200611;28;20847;-60
2022/06/08 03:42:32;;;;;;;74.50;34.75;;;;;;;;;;6194750;28;20073;-60
2022/06/08 03:45:40;;;;;;;83.03;36.85;;;;;;;;;;6203344;28;20066;-59
2022/06/08 03:48:44;;;;;;;79.25;35.92;;;;;;;;;;6205998;28;20069;-60
2022/06/08 03:51:45;;;;;;;83.20;36.22;;;;;;;;;;6211735;28;20397;-60
2022/06/08 03:54:52;;;;;;;67.60;30.83;;;;;;;;;;6210407;28;20042;-60
2022/06/08 03:57:53;;;;;;;63.78;28.17;;;;;;;;;;6207299;28;20502;-59
2022/06/08 04:00:54;;;;;;;57.30;24.98;;;;;;;;;;6208238;28;20140;-60
2022/06/08 04:03:55;;;;;;;52.57;24.20;;;;;;;;;;6207913;28;20038;-59
2022/06/08 04:10:15;;;;;;;57.75;25.48;;;;;;;;;;6208256;28;20548;-59
2022/06/08 04:13:15;;;;;;;55.13;25.20;;;;;;;;;;6212060;28;20172;-60
2022/06/08 04:16:16;;;;;;;56.65;26.83;;;;;;;;;;6206488;28;20539;-59
2022/06/08 04:19:17;;;;;;;60.65;25.55;;;;;;;;;;6205479;28;20058;-59
2022/06/08 04:22:20;;;;;;;60.17;25.63;;;;;;;;;;6204566;28;20050;-60
2022/06/08 04:33:15;;;;;;;61.92;26.88;;;;;;;;;;6200449;28;20092;-60
2022/06/08 04:36:16;;;;;;;60.22;25.50;;;;;;;;;;6207935;28;20050;-60
2022/06/08 04:39:17;;;;;;;58.40;24.45;;;;;;;;;;6209997;28;20038;-60
2022/06/08 04:42:17;;;;;;;58.45;25.13;;;;;;;;;;6213910;28;20100;-59
2022/06/08 04:45:18;;;;;;;55.95;25.23;;;;;;;;;;6205580;28;20058;-60
2022/06/08 04:48:20;;;;;;;59.70;23.25;;;;;;;;;;6211477;28;20046;-57
2022/06/08 04:51:20;;;;;;;52.67;23.87;;;;;;;;;;6212238;28;20447;-60
2022/06/08 04:54:21;;;;;;;55.57;25.43;;;;;;;;;;6207826;28;21030;-61
2022/06/08 04:57:21;;;;;;;59.58;25.95;;;;;;;;;;6211714;28;20129;-62
2022/06/08 05:00:23;;;;;;;58.58;23.67;;;;;;;;;;6209446;28;20342;-59
2022/06/08 05:03:24;;;;;;;58.95;25.27;;;;;;;;;;6202507;28;20057;-59
2022/06/08 05:06:26;;;;;;;60.50;25.37;;;;;;;;;;6208540;28;20908;-60
2022/06/08 05:09:27;;;;;;;63.95;27.02;;;;;;;;;;6202371;28;20051;-59
2022/06/08 05:12:27;;;;;;;60.42;26.35;;;;;;;;;;6198281;28;20061;-59
2022/06/08 05:15:32;;;;;;;61.00;25.95;;;;;;;;;;6206908;28;20049;-60
2022/06/08 05:18:33;;;;;;;65.97;27.45;;;;;;;;;;6151689;28;20099;-59
2022/06/08 05:21:34;;;;;;;67.85;28.00;;;;;;;;;;6155741;28;20623;-60
2022/06/08 05:24:35;;;;;;;61.73;26.77;;;;;;;;;;6151900;28;20514;-59
2022/06/08 05:27:35;;;;;;;62.00;26.00;;;;;;;;;;6153045;28;20300;-59
2022/06/08 05:30:36;;;;;;;70.55;28.17;;;;;;;;;;6147674;28;20043;-59
2022/06/08 05:33:38;;;;;;;73.90;31.52;;;;;;;;;;6148525;28;20051;-61
2022/06/08 05:36:38;;;;;;;71.90;30.15;;;;;;;;;;6160063;28;20081;-59
2022/06/08 05:39:39;;;;;;;67.50;29.65;;;;;;;;;;6160607;28;20483;-59
2022/06/08 05:42:40;;;;;;;59.70;25.70;;;;;;;;;;6154725;28;20483;-59
2022/06/08 05:45:41;;;;;;;62.65;26.98;;;;;;;;;;6151031;28;20054;-58
2022/06/08 05:48:43;;;;;;;66.85;26.35;;;;;;;;;;6161011;28;20146;-60
2022/06/08 05:51:44;;;;;;;62.85;27.20;;;;;;;;;;6154923;28;20481;-59
2022/06/08 05:54:45;;;;;;;58.05;24.98;;;;;;;;;;6153437;28;20648;-60
2022/06/08 05:57:46;;;;;;;58.28;24.98;;;;;;;;;;6154122;28;20577;-59
2022/06/08 06:00:48;;;;;;;59.67;25.00;;;;;;;;;;6151410;28;20051;-59
2022/06/08 06:03:50;;;;;;;59.53;24.45;;;;;;;;;;6152604;28;20077;-60
2022/06/08 06:06:51;;;;;;;64.75;26.02;;;;;;;;;;6151687;28;20051;-60
2022/06/08 06:09:52;;;;;;;56.60;25.05;;;;;;;;;;6158723;28;20074;-59
2022/06/08 06:12:54;;;;;;;59.92;25.95;;;;;;;;;;6157635;28;20070;-60
2022/06/08 06:15:57;;;;;;;61.95;25.88;;;;;;;;;;6162610;28;20046;-60
2022/06/08 06:18:57;;;;;;;65.82;24.75;;;;;;;;;;6209683;28;20046;-60
2022/06/08 06:21:58;;;;;;;62.80;26.30;;;;;;;;;;6200742;28;20066;-61
2022/06/08 06:25:00;;;;;;;62.40;27.27;;;;;;;;;;6206666;28;20137;-60
2022/06/08 06:28:00;;;;;;;58.20;25.40;;;;;;;;;;6198729;28;20042;-58
2022/06/08 06:31:01;;;;;;;67.40;26.25;;;;;;;;;;6203082;28;20729;-59
2022/06/08 06:34:02;;;;;;;62.03;25.10;;;;;;;;;;6197967;28;20045;-59
2022/06/08 06:37:02;;;;;;;59.33;25.33;;;;;;;;;;6202698;28;20047;-59
2022/06/08 06:40:05;;;;;;;57.45;24.60;;;;;;;;;;6206184;28;20045;-59
2022/06/08 06:43:06;;;;;;;62.42;26.40;;;;;;;;;;6201926;28;20041;-60
2022/06/08 06:46:09;;;;;;;61.70;26.70;;;;;;;;;;6201393;28;20183;-59
2022/06/08 06:49:10;;;;;;;67.72;26.95;;;;;;;;;;6196373;28;20124;-59
2022/06/08 06:52:12;;;;;;;62.42;25.42;;;;;;;;;;6207992;28;20099;-59
2022/06/08 06:55:23;;;;;;;67.35;28.08;;;;;;;;;;6204353;28;20394;-60
2022/06/08 06:58:24;;;;;;;64.85;25.98;;;;;;;;;;6198388;28;20050;-58
2022/06/08 07:01:25;;;;;;;61.53;27.02;;;;;;;;;;6197207;28;20061;-60
2022/06/08 07:04:26;;;;;;;59.53;25.10;;;;;;;;;;6205251;28;20081;-60
2022/06/08 07:07:28;;;;;;;59.87;27.00;;;;;;;;;;6193593;28;20057;-58
2022/06/08 07:10:28;;;;;;;64.28;26.40;;;;;;;;;;6203609;28;20073;-60
2022/06/08 07:13:29;;;;;;;62.47;26.42;;;;;;;;;;6204918;28;20630;-58
2022/06/08 07:16:32;;;;;;;63.17;27.10;;;;;;;;;;6211216;28;20140;-59
2022/06/08 07:19:33;;;;;;;68.63;29.70;;;;;;;;;;6204159;28;20042;-60
2022/06/08 07:22:33;;;;;;;76.15;30.63;;;;;;;;;;6206497;28;20084;-60
2022/06/08 07:25:34;;;;;;;96.10;37.65;;;;;;;;;;6197980;28;20053;-60
2022/06/08 07:28:35;;;;;;;92.82;36.17;;;;;;;;;;6213953;28;20160;-60
2022/06/08 07:31:36;;;;;;;89.18;35.28;;;;;;;;;;6212057;28;20046;-59
2022/06/08 07:34:36;;;;;;;86.70;35.75;;;;;;;;;;6211078;28;20532;-60
2022/06/08 07:37:37;;;;;;;77.57;30.98;;;;;;;;;;6203868;28;20042;-60
2022/06/08 07:40:38;;;;;;;74.93;32.17;;;;;;;;;;6212757;28;20737;-60
2022/06/08 07:43:39;;;;;;;74.95;29.02;;;;;;;;;;6205558;28;20042;-59
2022/06/08 07:46:39;;;;;;;70.53;29.50;;;;;;;;;;6209940;28;20198;-59
2022/06/08 07:49:41;;;;;;;74.80;31.05;;;;;;;;;;6211786;28;20050;-59
2022/06/08 07:52:41;;;;;;;70.95;28.52;;;;;;;;;;6213968;28;20038;-59
2022/06/08 07:55:42;;;;;;;70.22;28.48;;;;;;;;;;6206563;28;20049;-60
2022/06/08 07:58:43;;;;;;;72.80;29.13;;;;;;;;;;6198596;28;20471;-60
2022/06/08 08:01:44;;;;;;;63.60;27.40;;;;;;;;;;6209056;28;20054;-59
2022/06/08 08:04:45;;;;;;;68.73;28.00;;;;;;;;;;6213688;28;20053;-60
2022/06/08 08:07:46;;;;;;;64.37;27.83;;;;;;;;;;6204316;28;20053;-60
2022/06/08 08:10:47;;;;;;;57.07;25.67;;;;;;;;;;6208859;28;20136;-60
2022/06/08 08:13:47;;;;;;;55.45;25.08;;;;;;;;;;6209867;28;20485;-60
2022/06/08 08:16:49;;;;;;;56.40;25.45;;;;;;;;;;6212935;28;20401;-59
2022/06/08 08:19:49;;;;;;;58.15;24.73;;;;;;;;;;6199004;28;20847;-60
2022/06/08 08:22:50;;;;;;;61.10;25.80;;;;;;;;;;6211705;28;20153;-58
2022/06/08 08:25:52;;;;;;;53.23;24.13;;;;;;;;;;6208449;28;20053;-61
2022/06/08 08:28:54;;;;;;;;;;;;;;;;;;6211849;28;20497;-59
2022/06/08 08:31:55;;;;;;;54.63;24.58;;;;;;;;;;6204472;28;19922;-62
2022/06/08 08:34:56;;;;;;;52.45;23.20;;;;;;;;;;6208109;28;20034;-60
2022/06/08 08:37:57;;;;;;;51.67;22.52;;;;;;;;;;6210623;28;20038;-61
2022/06/08 08:41:00;;;;;;;55.30;24.30;;;;;;;;;;6209185;28;20121;-61
2022/06/08 08:44:01;;;;;;;57.83;24.05;;;;;;;;;;6207306;28;20088;-60
2022/06/08 08:47:14;;;;;;;56.60;23.38;;;;;;;;;;6208274;28;20176;-61
2022/06/08 08:50:37;;;;;;;58.17;24.70;;;;;;;;;;6205693;28;20046;-61
2022/06/08 08:53:38;;;;;;;53.33;22.98;;;;;;;;;;6203392;28;20055;-61
2022/06/08 08:56:39;;;;;;;53.17;23.38;;;;;;;;;;6203519;28;20137;-61
2022/06/08 08:59:45;;;;;;;65.68;26.27;;;;;;;;;;6198023;28;20041;-62
2022/06/08 09:06:17;;;;;;;62.22;26.00;;;;;;;;;;6194781;28;20157;-61
2022/06/08 09:09:23;;;;;;;62.92;25.25;;;;;;;;;;6201688;28;20135;-60
2022/06/08 09:12:24;;;;;;;65.55;26.55;;;;;;;;;;6208603;28;20141;-61
2022/06/08 09:15:41;;;;;;;61.95;26.55;;;;;;;;;;6204024;28;20042;-60
2022/06/08 09:18:42;;;;;;;69.63;28.92;;;;;;;;;;6206154;28;20046;-60
2022/06/08 09:21:42;;;;;;;71.47;28.17;;;;;;;;;;6207153;28;20409;-60
2022/06/08 09:24:49;;;;;;;71.72;27.92;;;;;;;;;;6205203;28;20084;-61
2022/06/08 09:27:52;;;;;;;73.78;29.67;;;;;;;;;;6199129;28;20061;-60
2022/06/08 09:30:53;;;;;;;80.20;31.88;;;;;;;;;;6200560;28;20050;-59
2022/06/08 09:34:18;;;;;;;88.53;34.00;;;;;;;;;;6202472;28;20104;-60
2022/06/08 09:37:23;;;;;;;81.68;32.83;;;;;;;;;;6208345;28;20073;-60
2022/06/08 09:40:37;;;;;;;89.97;35.38;;;;;;;;;;6207169;28;20078;-61
2022/06/08 09:43:44;;;;;;;75.57;31.77;;;;;;;;;;6204804;28;20038;-60
2022/06/08 09:54:21;;;;;;;76.70;30.15;;;;;;;;;;6198190;28;20069;-61
2022/06/08 09:57:30;;;;;;;73.25;29.33;;;;;;;;;;6207309;28;20128;-61
2022/06/08 10:00:49;;;;;;;71.82;29.58;;;;;;;;;;6201034;28;20069;-60
2022/06/08 10:04:32;;;;;;;71.32;28.27;;;;;;;;;;6208095;28;20527;-61
2022/06/08 10:07:48;;;;;;;68.72;27.88;;;;;;;;;;6183385;28;20081;-61
2022/06/08 10:11:33;;;;;;;60.60;25.60;;;;;;;;;;6205261;28;20053;-61
2022/06/08 10:14:49;;;;;;;48.97;22.45;;;;;;;;;;6207189;28;20038;-61
2022/06/08 10:18:00;;;;;;;55.38;25.27;;;;;;;;;;6197401;28;20096;-61
2022/06/08 10:21:13;;;;;;;64.55;28.40;;;;;;;;;;6207990;28;20077;-59
2022/06/08 10:24:23;;;;;;;63.55;25.67;;;;;;;;;;6205215;28;20515;-60
2022/06/08 10:27:33;;;;;;;56.17;25.10;;;;;;;;;;6202004;28;20082;-61
2022/06/08 10:30:41;;;;;;;56.15;25.08;;;;;;;;;;6204304;28;20566;-60
2022/06/08 10:34:18;;;;;;;52.45;22.55;;;;;;;;;;6206869;28;20463;-59
2022/06/08 10:37:24;;;;;;;52.35;23.58;;;;;;;;;;6203391;28;20058;-61
2022/06/08 10:40:30;;;;;;;50.65;23.73;;;;;;;;;;6200058;28;20041;-61
2022/06/08 10:43:37;;;;;;;47.20;21.40;;;;;;;;;;6196009;28;20507;-61
2022/06/08 10:46:43;;;;;;;45.50;20.20;;;;;;;;;;6199656;28;20116;-61
2022/06/08 10:49:44;;;;;;;49.15;21.92;;;;;;;;;;6203407;28;20046;-61
2022/06/08 10:52:49;;;;;;;47.97;22.93;;;;;;;;;;6202116;28;20054;-61
2022/06/08 10:55:49;;;;;;;48.08;21.63;;;;;;;;;;6202144;28;20805;-60
2022/06/08 10:59:07;;;;;;;44.13;22.70;;;;;;;;;;6204765;28;20101;-61
2022/06/08 11:02:10;;;;;;;48.20;23.63;;;;;;;;;;6206456;28;20493;-60
2022/06/08 11:05:28;;;;;;;52.60;24.83;;;;;;;;;;6214507;28;20092;-61
2022/06/08 11:08:51;;;;;;;47.67;23.05;;;;;;;;;;6205144;28;20390;-61
2022/06/08 11:12:04;;;;;;;52.05;26.10;;;;;;;;;;6213577;28;20507;-61
2022/06/08 11:15:36;;;;;;;51.40;24.30;;;;;;;;;;6203613;28;20058;-60
2022/06/08 11:18:57;;;;;;;43.58;21.90;;;;;;;;;;6206984;28;20050;-60
2022/06/08 11:22:00;;;;;;;49.67;25.20;;;;;;;;;;6213391;28;20041;-61
2022/06/08 11:25:06;;;;;;;44.25;22.38;;;;;;;;;;6213706;28;20050;-61
2022/06/08 11:28:24;;;;;;;40.20;21.35;;;;;;;;;;6205168;28;20050;-61
2022/06/08 11:31:25;;;;;;;39.90;20.58;;;;;;;;;;6204732;28;20486;-60
2022/06/08 11:34:37;;;;;;;38.30;20.20;;;;;;;;;;6208185;28;20052;-61
2022/06/08 11:37:51;;;;;;;38.50;20.55;;;;;;;;;;6207707;28;20065;-61
2022/06/08 11:41:30;;;;;;;38.22;20.65;;;;;;;;;;6212641;28;20092;-61
2022/06/08 11:44:33;;;;;;;36.30;18.92;;;;;;;;;;6204922;28;20077;-60
2022/06/08 11:47:48;;;;;;;31.42;18.00;;;;;;;;;;6206796;28;20050;-61
2022/06/08 11:50:54;;;;;;;28.27;16.50;;;;;;;;;;6215286;28;20108;-61
2022/06/08 11:53:55;;;;;;;30.15;16.80;;;;;;;;;;6210321;28;20499;-60
2022/06/08 11:57:02;;;;;;;29.63;16.80;;;;;;;;;;6209175;28;20124;-61
2022/06/08 12:00:14;;;;;;;30.60;18.05;;;;;;;;;;6207956;28;20050;-62
2022/06/08 12:03:15;;;;;;;27.95;16.52;;;;;;;;;;6210783;28;20042;-61
2022/06/08 12:06:24;;;;;;;21.83;13.00;;;;;;;;;;6213189;28;20137;-61
2022/06/08 12:09:32;;;;;;;22.75;13.40;;;;;;;;;;6210568;28;20080;-61
2022/06/08 12:12:33;;;;;;;23.90;14.70;;;;;;;;;;6206933;28;20052;-60
2022/06/08 12:15:44;;;;;;;24.50;14.73;;;;;;;;;;6204137;28;20050;-59
2022/06/08 12:18:53;;;;;;;26.63;14.23;;;;;;;;;;6203143;28;20404;-59
2022/06/08 12:22:23;;;;;;;27.13;14.90;;;;;;;;;;6200731;28;20042;-60
2022/06/08 12:25:26;;;;;;;23.27;13.90;;;;;;;;;;6209852;28;20051;-60
2022/06/08 12:28:27;;;;;;;23.92;14.75;;;;;;;;;;6201389;28;20798;-59
2022/06/08 12:31:31;;;;;;;25.77;15.25;;;;;;;;;;6208270;28;20461;-59
2022/06/08 12:34:50;;;;;;;28.30;15.27;;;;;;;;;;6202350;28;20058;-61
2022/06/08 12:38:16;;;;;;;23.92;14.40;;;;;;;;;;6208856;28;20042;-61
2022/06/08 12:41:17;;;;;;;24.90;14.18;;;;;;;;;;6206834;28;20046;-60
2022/06/08 12:44:23;;;;;;;27.00;14.97;;;;;;;;;;6203233;28;20611;-60
2022/06/08 12:47:29;;;;;;;30.35;16.77;;;;;;;;;;6202762;28;20066;-60
2022/06/08 12:50:30;;;;;;;26.42;16.15;;;;;;;;;;6199369;28;20413;-60
2022/06/08 12:53:31;;;;;;;27.13;16.90;;;;;;;;;;6211968;28;20564;-60
2022/06/08 12:56:31;;;;;;;28.33;17.30;;;;;;;;;;6201205;28;20121;-59
2022/06/08 12:59:36;;;;;;;26.77;15.67;;;;;;;;;;6202780;28;20068;-60
2022/06/08 13:02:39;;;;;;;28.05;16.20;;;;;;;;;;6206055;28;20400;-60
2022/06/08 13:05:40;;;;;;;29.42;16.35;;;;;;;;;;6207804;28;20042;-60
2022/06/08 13:08:41;;;;;;;27.97;15.97;;;;;;;;;;6209698;28;20137;-59
2022/06/08 13:11:44;;;;;;;26.98;16.73;;;;;;;;;;6205366;28;20606;-60
2022/06/08 13:14:44;;;;;;;24.48;14.85;;;;;;;;;;6205493;28;20061;-60
2022/06/08 13:17:46;;;;;;;25.67;14.87;;;;;;;;;;6199577;28;20054;-60
2022/06/08 13:20:47;;;;;;;26.52;15.25;;;;;;;;;;6200320;28;20412;-61
2022/06/08 13:23:48;;;;;;;24.50;15.00;;;;;;;;;;6198841;28;20050;-60
2022/06/08 13:26:49;;;;;;;28.48;16.52;;;;;;;;;;6200969;28;20053;-60
2022/06/08 13:29:49;;;;;;;26.27;15.67;;;;;;;;;;6209929;28;20061;-60
2022/06/08 13:32:50;;;;;;;26.33;15.67;;;;;;;;;;6201923;28;20494;-60
2022/06/08 13:35:50;;;;;;;26.47;15.30;;;;;;;;;;6204539;28;20137;-61
2022/06/08 13:39:11;;;;;;;28.93;15.27;;;;;;;;;;6185316;28;20034;-64
2022/06/08 13:42:16;;;;;;;26.92;16.17;;;;;;;;;;6191125;28;20085;-60
2022/06/08 13:45:21;;;;;;;27.75;16.42;;;;;;;;;;6195753;28;20038;-60
2022/06/08 13:48:22;;;;;;;28.30;16.13;;;;;;;;;;6189716;28;20096;-59
2022/06/08 13:51:23;;;;;;;29.27;17.03;;;;;;;;;;6191949;28;20566;-60
2022/06/08 13:54:40;;;;;;;29.45;17.08;;;;;;;;;;6191840;28;20547;-60
2022/06/08 13:57:40;;;;;;;26.75;16.08;;;;;;;;;;6187260;28;20088;-60
2022/06/08 14:00:51;;;;;;;24.53;14.73;;;;;;;;;;6192822;28;20527;-60
2022/06/08 14:03:52;;;;;;;32.45;19.20;;;;;;;;;;6193891;28;20061;-59
2022/06/08 14:14:02;;;;;;;25.52;14.90;;;;;;;;;;6136046;28;20185;-59
2022/06/08 14:17:04;;;;;;;29.55;17.55;;;;;;;;;;6187573;28;20046;-59
2022/06/08 14:20:07;;;;;;;30.35;16.52;;;;;;;;;;6198233;28;20539;-59
2022/06/08 14:23:11;;;;;;;30.13;17.92;;;;;;;;;;6193372;28;20057;-59
2022/06/08 14:26:14;;;;;;;31.23;17.95;;;;;;;;;;6193793;28;20060;-60
2022/06/08 14:29:15;;;;;;;33.17;17.48;;;;;;;;;;6190566;28;20115;-59
2022/06/08 14:32:23;;;;;;;30.55;16.38;;;;;;;;;;6188261;28;20081;-60
2022/06/08 14:35:23;;;;;;;27.60;15.68;;;;;;;;;;6190274;28;20038;-59
2022/06/08 14:38:31;;;;;;;31.10;16.00;;;;;;;;;;6190191;28;20131;-59
2022/06/08 14:41:38;;;;;;;26.58;15.15;;;;;;;;;;6192003;28;20414;-59
2022/06/08 14:44:39;;;;;;;29.10;15.57;;;;;;;;;;6192316;28;20066;-60
2022/06/08 14:47:39;;;;;;;27.05;16.08;;;;;;;;;;6188907;28;21470;-60
2022/06/08 14:50:44;;;;;;;26.13;15.10;;;;;;;;;;6192993;28;20135;-60
2022/06/08 14:53:45;;;;;;;28.63;16.15;;;;;;;;;;6191146;28;20390;-59
2022/06/08 14:56:49;;;;;;;29.25;16.13;;;;;;;;;;6188862;28;20520;-60
2022/06/08 14:59:51;;;;;;;27.55;15.40;;;;;;;;;;6191078;28;20451;-60
2022/06/08 15:02:52;;;;;;;27.25;15.05;;;;;;;;;;6197589;28;20062;-60
2022/06/08 15:05:53;;;;;;;24.53;14.30;;;;;;;;;;6191581;28;20062;-60
2022/06/08 15:08:54;;;;;;;25.23;13.82;;;;;;;;;;6186554;28;20077;-60
2022/06/08 15:11:58;;;;;;;23.10;13.37;;;;;;;;;;6186304;28;20048;-59
2022/06/08 15:15:21;;;;;;;22.55;13.52;;;;;;;;;;6192255;28;20509;-59
2022/06/08 15:18:21;;;;;;;27.13;13.77;;;;;;;;;;6190273;28;20139;-60
2022/06/08 15:21:22;;;;;;;23.33;14.27;;;;;;;;;;6186956;28;20086;-60
2022/06/08 15:24:24;;;;;;;27.47;14.07;;;;;;;;;;6193456;28;20053;-60
2022/06/08 15:27:34;;;;;;;21.02;13.18;;;;;;;;;;6189502;28;20077;-60
2022/06/08 15:30:37;;;;;;;24.13;13.25;;;;;;;;;;6191993;28;20069;-59
2022/06/08 15:33:37;;;;;;;22.40;13.50;;;;;;;;;;6192231;28;20092;-59
2022/06/08 15:36:38;;;;;;;23.77;13.87;;;;;;;;;;6189790;28;20054;-58
2022/06/08 15:39:39;;;;;;;28.00;14.70;;;;;;;;;;6194341;28;20230;-59
2022/06/08 15:42:40;;;;;;;25.20;14.00;;;;;;;;;;6197848;28;20142;-61
2022/06/08 15:45:40;;;;;;;20.80;13.60;;;;;;;;;;6194835;28;20177;-60
2022/06/08 15:48:44;;;;;;;24.20;13.70;;;;;;;;;;6199048;28;20062;-60
2022/06/08 15:51:47;;;;;;;25.52;13.52;;;;;;;;;;6195013;28;20056;-59
2022/06/08 15:55:34;;;;;;;24.30;15.07;;;;;;;;;;6202803;28;20045;-59
2022/06/08 15:58:35;;;;;;;25.05;15.40;;;;;;;;;;6194280;28;20111;-59
2022/06/08 16:01:37;;;;;;;24.17;13.60;;;;;;;;;;6192725;28;20042;-59
2022/06/08 16:04:38;;;;;;;23.70;13.45;;;;;;;;;;6194670;28;20432;-59
2022/06/08 16:07:39;;;;;;;21.50;13.43;;;;;;;;;;6198468;28;20046;-59
2022/06/08 16:10:41;;;;;;;22.17;12.95;;;;;;;;;;6197673;28;20228;-60
2022/06/08 16:13:41;;;;;;;21.15;13.13;;;;;;;;;;6195586;28;20060;-59
2022/06/08 16:16:42;;;;;;;18.70;12.10;;;;;;;;;;6190805;28;20551;-60
2022/06/08 16:19:45;;;;;;;18.10;11.90;;;;;;;;;;6196229;28;20080;-60
2022/06/08 16:22:46;;;;;;;20.92;12.27;;;;;;;;;;6192969;28;20080;-60
2022/06/08 16:25:47;;;;;;;23.45;13.52;;;;;;;;;;6192841;28;20046;-59
2022/06/08 16:28:49;;;;;;;22.10;13.60;;;;;;;;;;6195629;28;20449;-60
2022/06/08 16:31:49;;;;;;;19.58;12.07;;;;;;;;;;6195945;28;20046;-57
2022/06/08 16:34:50;;;;;;;18.97;12.10;;;;;;;;;;6199385;28;20157;-59
2022/06/08 16:37:57;;;;;;;23.77;12.67;;;;;;;;;;6193699;28;20507;-59
2022/06/08 16:40:58;;;;;;;20.05;11.63;;;;;;;;;;6198017;28;20416;-60
2022/06/08 16:43:59;;;;;;;19.77;12.17;;;;;;;;;;6199749;28;20132;-59
2022/06/08 16:47:01;;;;;;;21.77;12.55;;;;;;;;;;6189051;28;20043;-59
2022/06/08 16:50:02;;;;;;;;;;;;;;;;;;6194130;28;20453;-59
2022/06/08 16:53:04;;;;;;;23.17;12.82;;;;;;;;;;6193902;28;20378;-60
2022/06/08 16:56:07;;;;;;;24.40;13.68;;;;;;;;;;6194547;28;20692;-60
2022/06/08 17:02:27;;;;;;;25.30;13.63;;;;;;;;;;6193802;28;20081;-59
2022/06/08 17:05:28;;;;;;;27.27;14.80;;;;;;;;;;6198362;28;20485;-60
2022/06/08 17:08:30;;;;;;;26.53;15.57;;;;;;;;;;6194603;28;20731;-59
2022/06/08 17:11:36;;;;;;;27.55;14.88;;;;;;;;;;6192897;28;20078;-61
2022/06/08 17:14:39;;;;;;;24.15;14.02;;;;;;;;;;6193226;28;20049;-60
2022/06/08 17:17:40;;;;;;;28.73;14.07;;;;;;;;;;6192830;28;20232;-60
2022/06/08 17:20:41;;;;;;;25.93;14.90;;;;;;;;;;6201529;28;20041;-59
2022/06/08 17:23:42;;;;;;;25.90;14.53;;;;;;;;;;6197150;28;20311;-59
2022/06/08 17:26:42;;;;;;;27.27;14.10;;;;;;;;;;6187766;28;20041;-59
2022/06/08 17:29:43;;;;;;;25.27;15.57;;;;;;;;;;6191001;28;20074;-58
2022/06/08 17:32:44;;;;;;;27.23;15.23;;;;;;;;;;6191893;28;20100;-60
2022/06/08 17:35:45;;;;;;;25.00;15.32;;;;;;;;;;6177177;28;20482;-60
2022/06/08 17:38:45;;;;;;;67.63;42.63;;;;;;;;;;6191818;28;20112;-60
2022/06/08 17:41:46;;;;;;;55.03;33.13;;;;;;;;;;6192386;28;20465;-59
2022/06/08 17:44:59;;;;;;;31.87;17.10;;;;;;;;;;6179468;28;20440;-61
2022/06/08 17:48:00;;;;;;;30.80;16.75;;;;;;;;;;6189026;28;20425;-60
2022/06/08 17:51:00;;;;;;;40.07;22.03;;;;;;;;;;6192697;28;20136;-60
2022/06/08 17:54:01;;;;;;;27.20;16.27;;;;;;;;;;6198850;28;20050;-60
2022/06/08 17:57:02;;;;;;;34.03;19.77;;;;;;;;;;6187912;28;20538;-60
2022/06/08 18:00:05;;;;;;;;;;;;;;;;;;6198430;28;20081;-60
2022/06/08 18:03:06;;;;;;;29.48;16.38;;;;;;;;;;6197837;28;19933;-60
2022/06/08 18:06:07;;;;;;;30.20;17.47;;;;;;;;;;6193122;28;20468;-60
2022/06/08 18:09:07;;;;;;;28.90;17.50;;;;;;;;;;6194300;28;20074;-60
2022/06/08 18:12:09;;;;;;;30.60;15.83;;;;;;;;;;6189539;28;20176;-60
2022/06/08 18:15:11;;;;;;;30.77;16.63;;;;;;;;;;6193892;28;20406;-60
2022/06/08 18:18:12;;;;;;;;;;;;;;;;;;6187579;28;20058;-59
2022/06/08 18:21:13;;;;;;;38.93;23.43;;;;;;;;;;6198075;28;19936;-60
2022/06/08 18:24:14;;;;;;;31.87;17.17;;;;;;;;;;6195932;28;20089;-60
2022/06/08 18:27:32;;;;;;;30.77;16.87;;;;;;;;;;6191081;28;20058;-60
2022/06/08 18:30:35;;;;;;;32.22;17.20;;;;;;;;;;6192611;28;20061;-62
2022/06/08 18:33:36;;;;;;;28.88;16.55;;;;;;;;;;6193373;28;20091;-61